GBK weather

Gbangbatok Airport
Gbangbatok, Southern Province, Sierra Leone

Public forecast

Using degrees Celsius for public forecast. Weather courtesy of forecast.io.

Closest aviation weather report (METAR) to Gbangbatok Airport

Report is more than 6 hours old.

Closest report is Lungi International Airport, 70.2 nm (130.1 km) NW. Retrieved 2020/06/05 12:00 UTC (9 hours ago):

GFLL 051200Z 21008KT 9999 BKN011 FEW027CB 29/23 Q1014 RMK CB-N/NE

Closest aviation forecast (TAF) to Gbangbatok Airport

Closest forecast is Lungi International Airport, 70.2 nm (130.1 km) NW. Retrieved 2020/06/05 18:03 UTC (3 hours ago):

TAF TAF GFLL 051700Z 0518/0624 27009KT 9999 TS BKN013 FEW027CB PROB30 TEMPO 0519/0523 28010KT BKN012 FEW026CB PROB30 TEMPO 0601/0604 12010KT 6000 TSRA BKN009 FEW025CB BECMG 0608/0610 09003KT 9999 BKN010 FEW026CB